AAL3756 KMIA-MMMY
Flight info
| Callsign | AAL3756 |
|---|---|
| Flight time | 2h 56m |
| Altitude | 38000 |
| Route | GLADZ4 SHAQQ M580 MINOW DCT ALGAE DCT SEAGL DCT ITPIS ITPIS1B |
| Aircraft | A319/M-SDE3FGHIRWY/LB1 |
Departure
| Time | 2026-04-26 07:13 |
|---|---|
| Airport | Miami International Airport (KMIA) |
Arrival
| Time | 2026-04-26 10:09 |
|---|---|
| Airport | Monterrey International Airport (MMMY) |
| Time | Latitude | Longitude | Altitude | Speed | Heading |
|---|---|---|---|---|---|
| 2026-04-26 06:41 | 25.79715 | -80.28525 | 15 ft | 0 kts | 26° |
| 2026-04-26 07:01 | 25.79707 | -80.28529 | 15 ft | 4 kts | 26° |
| 2026-04-26 07:02 | 25.79686 | -80.28540 | 12 ft | 4 kts | 12° |
| 2026-04-26 07:02 | 25.79668 | -80.28535 | 16 ft | 4 kts | 295° |
| 2026-04-26 07:02 | 25.79665 | -80.28508 | 15 ft | 4 kts | 263° |
| 2026-04-26 07:02 | 25.79666 | -80.28497 | 16 ft | 0 kts | 263° |
| 2026-04-26 07:06 | 25.79666 | -80.28499 | 16 ft | 1 kts | 263° |
| 2026-04-26 07:06 | 25.79664 | -80.28518 | 16 ft | 4 kts | 263° |
| 2026-04-26 07:07 | 25.79659 | -80.28555 | 15 ft | 6 kts | 260° |
| 2026-04-26 07:07 | 25.79650 | -80.28607 | 15 ft | 8 kts | 261° |
| 2026-04-26 07:07 | 25.79646 | -80.28678 | 16 ft | 10 kts | 267° |
| 2026-04-26 07:07 | 25.79641 | -80.28765 | 15 ft | 12 kts | 266° |
| 2026-04-26 07:08 | 25.79700 | -80.28815 | 15 ft | 13 kts | 358° |
| 2026-04-26 07:08 | 25.79798 | -80.28819 | 15 ft | 15 kts | 356° |
| 2026-04-26 07:08 | 25.79905 | -80.28826 | 15 ft | 15 kts | 357° |
| 2026-04-26 07:08 | 25.80005 | -80.28847 | 16 ft | 15 kts | 311° |
| 2026-04-26 07:09 | 25.80010 | -80.28965 | 16 ft | 17 kts | 266° |
| 2026-04-26 07:09 | 25.80004 | -80.29100 | 16 ft | 18 kts | 268° |
| 2026-04-26 07:09 | 25.79998 | -80.29247 | 16 ft | 20 kts | 266° |
| 2026-04-26 07:09 | 25.79992 | -80.29410 | 15 ft | 22 kts | 268° |
| 2026-04-26 07:10 | 25.79971 | -80.29919 | 14 ft | 19 kts | 267° |
| 2026-04-26 07:11 | 25.79988 | -80.30018 | 13 ft | 2 kts | 285° |
| 2026-04-26 07:11 | 25.79995 | -80.30045 | 15 ft | 5 kts | 287° |
| 2026-04-26 07:11 | 25.80007 | -80.30086 | 14 ft | 6 kts | 288° |
| 2026-04-26 07:11 | 25.80038 | -80.30127 | 14 ft | 8 kts | 327° |
| 2026-04-26 07:12 | 25.80073 | -80.30105 | 14 ft | 9 kts | 85° |
| 2026-04-26 07:12 | 25.80075 | -80.30044 | 13 ft | 0 kts | 87° |
| 2026-04-26 07:12 | 25.80077 | -80.29985 | 13 ft | 37 kts | 87° |
| 2026-04-26 07:12 | 25.80104 | -80.29377 | 16 ft | 117 kts | 87° |
| 2026-04-26 07:13 | 25.80146 | -80.28245 | 102 ft | 168 kts | 88° |
| 2026-04-26 07:13 | 25.80203 | -80.26883 | 714 ft | 181 kts | 88° |
| 2026-04-26 07:13 | 25.80242 | -80.25444 | 1373 ft | 192 kts | 90° |
| 2026-04-26 07:13 | 25.80279 | -80.23936 | 2101 ft | 199 kts | 90° |
| 2026-04-26 07:14 | 25.80335 | -80.22316 | 2629 ft | 222 kts | 89° |
| 2026-04-26 07:14 | 25.80420 | -80.20511 | 3201 ft | 247 kts | 88° |
| 2026-04-26 07:14 | 25.80529 | -80.18529 | 3940 ft | 264 kts | 84° |
| 2026-04-26 07:14 | 25.81231 | -80.16628 | 4879 ft | 275 kts | 50° |
| 2026-04-26 07:15 | 25.82811 | -80.15456 | 5916 ft | 279 kts | 18° |
| 2026-04-26 07:15 | 25.84731 | -80.15134 | 6995 ft | 281 kts | 1° |
| 2026-04-26 07:15 | 25.86693 | -80.15186 | 8050 ft | 283 kts | 355° |
| 2026-04-26 07:15 | 25.88661 | -80.15366 | 9093 ft | 285 kts | 349° |
| 2026-04-26 07:16 | 25.90563 | -80.15990 | 10057 ft | 286 kts | 335° |
| 2026-04-26 07:16 | 25.92463 | -80.16849 | 10584 ft | 307 kts | 338° |
| 2026-04-26 07:16 | 25.94544 | -80.17703 | 10996 ft | 328 kts | 334° |
| 2026-04-26 07:16 | 25.96524 | -80.19007 | 11749 ft | 334 kts | 320° |
| 2026-04-26 07:17 | 25.98132 | -80.20874 | 12628 ft | 337 kts | 304° |
| 2026-04-26 07:17 | 25.99190 | -80.23198 | 13517 ft | 340 kts | 288° |
| 2026-04-26 07:17 | 25.99641 | -80.25792 | 14345 ft | 344 kts | 278° |
| 2026-04-26 07:17 | 25.99782 | -80.28461 | 15108 ft | 349 kts | 271° |
| 2026-04-26 07:18 | 25.99769 | -80.31172 | 15877 ft | 352 kts | 271° |
| 2026-04-26 07:18 | 25.99760 | -80.33905 | 16635 ft | 356 kts | 271° |
| 2026-04-26 07:18 | 25.99755 | -80.36674 | 17391 ft | 360 kts | 271° |
| 2026-04-26 07:18 | 25.99702 | -80.39466 | 18145 ft | 365 kts | 266° |
| 2026-04-26 07:19 | 25.99194 | -80.42260 | 18805 ft | 372 kts | 254° |
| 2026-04-26 07:19 | 25.98145 | -80.44907 | 19480 ft | 378 kts | 242° |
| 2026-04-26 07:19 | 25.96607 | -80.47307 | 20144 ft | 384 kts | 234° |
| 2026-04-26 07:19 | 25.94945 | -80.49646 | 20814 ft | 387 kts | 234° |
| 2026-04-26 07:20 | 25.93273 | -80.52005 | 21441 ft | 391 kts | 235° |
| 2026-04-26 07:20 | 25.91590 | -80.54390 | 22074 ft | 394 kts | 235° |
| 2026-04-26 07:20 | 25.89893 | -80.56796 | 22687 ft | 397 kts | 236° |
| 2026-04-26 07:20 | 25.88738 | -80.58431 | 23100 ft | 400 kts | 236° |
| 2026-04-26 07:21 | 25.87013 | -80.60872 | 23667 ft | 403 kts | 236° |
| 2026-04-26 07:21 | 25.85277 | -80.63324 | 24166 ft | 406 kts | 236° |
| 2026-04-26 07:21 | 25.83528 | -80.65792 | 24668 ft | 408 kts | 235° |
| 2026-04-26 07:21 | 25.81770 | -80.68272 | 25156 ft | 410 kts | 235° |
| 2026-04-26 07:22 | 25.80011 | -80.70780 | 25638 ft | 412 kts | 238° |
| 2026-04-26 07:22 | 25.78546 | -80.73497 | 26110 ft | 410 kts | 247° |
| 2026-04-26 07:22 | 25.77518 | -80.76446 | 26588 ft | 410 kts | 255° |
| 2026-04-26 07:22 | 25.76699 | -80.79485 | 27065 ft | 412 kts | 255° |
| 2026-04-26 07:23 | 25.75874 | -80.82540 | 27537 ft | 415 kts | 255° |
| 2026-04-26 07:23 | 25.75040 | -80.85617 | 28000 ft | 418 kts | 255° |
| 2026-04-26 07:23 | 25.74198 | -80.88707 | 28454 ft | 420 kts | 255° |
| 2026-04-26 07:23 | 25.73347 | -80.91818 | 28886 ft | 423 kts | 256° |
| 2026-04-26 07:24 | 25.72491 | -80.94944 | 29361 ft | 424 kts | 256° |
| 2026-04-26 07:24 | 25.71631 | -80.98076 | 29801 ft | 426 kts | 256° |
| 2026-04-26 07:24 | 25.70767 | -81.01227 | 30189 ft | 428 kts | 256° |
| 2026-04-26 07:24 | 25.69904 | -81.04394 | 30536 ft | 430 kts | 256° |
| 2026-04-26 07:25 | 25.69036 | -81.07579 | 30872 ft | 433 kts | 256° |
| 2026-04-26 07:25 | 25.68160 | -81.10775 | 31203 ft | 435 kts | 256° |
| 2026-04-26 07:25 | 25.67278 | -81.13984 | 31605 ft | 434 kts | 256° |
| 2026-04-26 07:25 | 25.66398 | -81.17184 | 32086 ft | 433 kts | 257° |
| 2026-04-26 07:26 | 25.65782 | -81.20467 | 32556 ft | 428 kts | 266° |
| 2026-04-26 07:26 | 25.65721 | -81.23742 | 33030 ft | 423 kts | 276° |
| 2026-04-26 07:26 | 25.66191 | -81.26945 | 33509 ft | 420 kts | 285° |
| 2026-04-26 07:26 | 25.67165 | -81.29983 | 34017 ft | 417 kts | 296° |
| 2026-04-26 07:27 | 25.68457 | -81.32828 | 34600 ft | 411 kts | 297° |
| 2026-04-26 07:27 | 25.69740 | -81.35639 | 35152 ft | 407 kts | 297° |
| 2026-04-26 07:27 | 25.71007 | -81.38434 | 35591 ft | 405 kts | 297° |
| 2026-04-26 07:27 | 25.72265 | -81.41217 | 36005 ft | 403 kts | 297° |
| 2026-04-26 07:28 | 25.73524 | -81.43991 | 36418 ft | 402 kts | 297° |
| 2026-04-26 07:28 | 25.74781 | -81.46750 | 36823 ft | 400 kts | 297° |
| 2026-04-26 07:28 | 25.76031 | -81.49500 | 37225 ft | 399 kts | 297° |
| 2026-04-26 07:28 | 25.77278 | -81.52243 | 37618 ft | 397 kts | 297° |
| 2026-04-26 07:29 | 25.78520 | -81.54973 | 37899 ft | 397 kts | 297° |
| 2026-04-26 07:29 | 25.80995 | -81.60422 | 37951 ft | 394 kts | 297° |
| 2026-04-26 07:30 | 25.83447 | -81.65857 | 37944 ft | 394 kts | 297° |
| 2026-04-26 07:30 | 25.85891 | -81.71266 | 37951 ft | 391 kts | 297° |
| 2026-04-26 07:31 | 25.88270 | -81.76686 | 37952 ft | 391 kts | 292° |
| 2026-04-26 07:31 | 25.89304 | -81.82609 | 37948 ft | 395 kts | 276° |
| 2026-04-26 07:32 | 25.89584 | -81.88700 | 37948 ft | 395 kts | 276° |
| 2026-04-26 07:32 | 25.89875 | -81.94797 | 37947 ft | 395 kts | 276° |
| 2026-04-26 07:33 | 25.90162 | -82.00900 | 37942 ft | 396 kts | 276° |
| 2026-04-26 07:33 | 25.90440 | -82.07003 | 37942 ft | 396 kts | 276° |
| 2026-04-26 07:34 | 25.90722 | -82.13146 | 37947 ft | 396 kts | 276° |
| 2026-04-26 07:34 | 25.91001 | -82.19253 | 37947 ft | 396 kts | 276° |
| 2026-04-26 07:35 | 25.91272 | -82.25357 | 37944 ft | 396 kts | 276° |
| 2026-04-26 07:35 | 25.91540 | -82.31465 | 37945 ft | 396 kts | 276° |
| 2026-04-26 07:36 | 25.91805 | -82.37567 | 37948 ft | 396 kts | 276° |
| 2026-04-26 07:36 | 25.92069 | -82.43673 | 37941 ft | 395 kts | 276° |
| 2026-04-26 07:37 | 25.92329 | -82.49766 | 37946 ft | 395 kts | 276° |
| 2026-04-26 07:37 | 25.92589 | -82.55847 | 37949 ft | 394 kts | 276° |
| 2026-04-26 07:38 | 25.92847 | -82.61930 | 37952 ft | 394 kts | 276° |
| 2026-04-26 07:38 | 25.93097 | -82.68002 | 37951 ft | 394 kts | 276° |
| 2026-04-26 07:39 | 25.93342 | -82.74079 | 37947 ft | 393 kts | 276° |
| 2026-04-26 07:39 | 25.93583 | -82.80146 | 37923 ft | 393 kts | 276° |
| 2026-04-26 07:40 | 25.93830 | -82.86213 | 37927 ft | 393 kts | 277° |
| 2026-04-26 07:40 | 25.94076 | -82.92278 | 37932 ft | 393 kts | 277° |
| 2026-04-26 07:41 | 25.94313 | -82.98343 | 37934 ft | 393 kts | 276° |
| 2026-04-26 07:41 | 25.94548 | -83.04407 | 37936 ft | 393 kts | 276° |
| 2026-04-26 07:42 | 25.94786 | -83.10511 | 37937 ft | 393 kts | 276° |
| 2026-04-26 07:42 | 25.95019 | -83.16571 | 37914 ft | 393 kts | 277° |
| 2026-04-26 07:43 | 25.95249 | -83.22626 | 37931 ft | 392 kts | 277° |
| 2026-04-26 07:43 | 25.95469 | -83.28670 | 37931 ft | 391 kts | 277° |
| 2026-04-26 07:44 | 25.95692 | -83.34711 | 37937 ft | 391 kts | 277° |
| 2026-04-26 07:44 | 25.95918 | -83.40743 | 37933 ft | 391 kts | 277° |
| 2026-04-26 07:45 | 25.96138 | -83.46775 | 37931 ft | 391 kts | 277° |
| 2026-04-26 07:45 | 25.96352 | -83.52805 | 37929 ft | 390 kts | 277° |
| 2026-04-26 07:46 | 25.96620 | -83.58817 | 37925 ft | 389 kts | 277° |
| 2026-04-26 07:46 | 25.96913 | -83.64827 | 37932 ft | 389 kts | 277° |
| 2026-04-26 07:47 | 25.97189 | -83.70824 | 37933 ft | 389 kts | 277° |
| 2026-04-26 07:47 | 25.97468 | -83.76820 | 37932 ft | 388 kts | 277° |
| 2026-04-26 07:48 | 25.97739 | -83.82810 | 37931 ft | 388 kts | 277° |
| 2026-04-26 07:48 | 25.98006 | -83.88801 | 37926 ft | 388 kts | 277° |
| 2026-04-26 07:49 | 25.98265 | -83.94788 | 37919 ft | 388 kts | 277° |
| 2026-04-26 07:49 | 25.98518 | -84.00814 | 37925 ft | 388 kts | 277° |
| 2026-04-26 07:50 | 25.98902 | -84.09796 | 37927 ft | 388 kts | 277° |
| 2026-04-26 07:50 | 25.99149 | -84.15783 | 37928 ft | 388 kts | 277° |
| 2026-04-26 07:51 | 25.99400 | -84.21772 | 37918 ft | 388 kts | 277° |
| 2026-04-26 07:51 | 25.99653 | -84.27756 | 37924 ft | 388 kts | 277° |
| 2026-04-26 07:52 | 25.99892 | -84.33742 | 37923 ft | 388 kts | 277° |
| 2026-04-26 07:52 | 26.00128 | -84.39730 | 37925 ft | 388 kts | 277° |
| 2026-04-26 07:53 | 26.00372 | -84.45716 | 37924 ft | 388 kts | 277° |
| 2026-04-26 07:53 | 26.00613 | -84.51703 | 37925 ft | 388 kts | 277° |
| 2026-04-26 07:54 | 26.00810 | -84.56675 | 37928 ft | 388 kts | 277° |
| 2026-04-26 07:54 | 26.01042 | -84.62708 | 37931 ft | 388 kts | 277° |
| 2026-04-26 07:55 | 26.01274 | -84.68697 | 37922 ft | 388 kts | 277° |
| 2026-04-26 07:55 | 26.01502 | -84.74682 | 37930 ft | 387 kts | 277° |
| 2026-04-26 07:56 | 26.01726 | -84.80663 | 37934 ft | 387 kts | 277° |
| 2026-04-26 07:56 | 26.01947 | -84.86642 | 37935 ft | 387 kts | 277° |
| 2026-04-26 07:57 | 26.02132 | -84.92623 | 37936 ft | 387 kts | 276° |
| 2026-04-26 07:57 | 26.02290 | -84.98610 | 37937 ft | 387 kts | 276° |
| 2026-04-26 07:58 | 26.02445 | -85.04595 | 37937 ft | 387 kts | 276° |
| 2026-04-26 07:58 | 26.02597 | -85.10577 | 37930 ft | 387 kts | 276° |
| 2026-04-26 07:59 | 26.02754 | -85.16559 | 37931 ft | 387 kts | 276° |
| 2026-04-26 07:59 | 26.02907 | -85.22540 | 37933 ft | 387 kts | 276° |
| 2026-04-26 08:00 | 26.03055 | -85.28522 | 37937 ft | 387 kts | 276° |
| 2026-04-26 08:00 | 26.03207 | -85.34504 | 37940 ft | 387 kts | 276° |
| 2026-04-26 08:01 | 26.03357 | -85.40485 | 37941 ft | 387 kts | 276° |
| 2026-04-26 08:01 | 26.03503 | -85.46464 | 37923 ft | 387 kts | 276° |
| 2026-04-26 08:02 | 26.03646 | -85.52488 | 37928 ft | 387 kts | 276° |
| 2026-04-26 08:02 | 26.03781 | -85.58475 | 37932 ft | 387 kts | 276° |
| 2026-04-26 08:03 | 26.03919 | -85.64463 | 37937 ft | 387 kts | 276° |
| 2026-04-26 08:03 | 26.04057 | -85.70453 | 37938 ft | 388 kts | 276° |
| 2026-04-26 08:04 | 26.04194 | -85.76446 | 37939 ft | 388 kts | 276° |
| 2026-04-26 08:04 | 26.04321 | -85.82449 | 37942 ft | 388 kts | 276° |
| 2026-04-26 08:05 | 26.04449 | -85.88453 | 37945 ft | 388 kts | 276° |
| 2026-04-26 08:05 | 26.04574 | -85.94455 | 37945 ft | 388 kts | 276° |
| 2026-04-26 08:06 | 26.04739 | -86.00450 | 37948 ft | 387 kts | 278° |
| 2026-04-26 08:06 | 26.05256 | -86.06379 | 37947 ft | 385 kts | 281° |
| 2026-04-26 08:07 | 26.05888 | -86.12285 | 37938 ft | 384 kts | 281° |
| 2026-04-26 08:07 | 26.06470 | -86.18199 | 37941 ft | 385 kts | 280° |
| 2026-04-26 08:08 | 26.07008 | -86.24129 | 37933 ft | 386 kts | 280° |
| 2026-04-26 08:08 | 26.07535 | -86.30064 | 37936 ft | 386 kts | 280° |
| 2026-04-26 08:09 | 26.08059 | -86.35997 | 37940 ft | 386 kts | 280° |
| 2026-04-26 08:09 | 26.08577 | -86.41941 | 37939 ft | 386 kts | 280° |
| 2026-04-26 08:10 | 26.09111 | -86.47915 | 37944 ft | 386 kts | 280° |
| 2026-04-26 08:10 | 26.09645 | -86.53855 | 37945 ft | 386 kts | 280° |
| 2026-04-26 08:11 | 26.10165 | -86.59796 | 37929 ft | 386 kts | 280° |
| 2026-04-26 08:11 | 26.10679 | -86.65742 | 37931 ft | 386 kts | 280° |
| 2026-04-26 08:12 | 26.11190 | -86.71696 | 37938 ft | 387 kts | 280° |
| 2026-04-26 08:12 | 26.11702 | -86.77651 | 37941 ft | 387 kts | 280° |
| 2026-04-26 08:13 | 26.12218 | -86.83605 | 37944 ft | 387 kts | 280° |
| 2026-04-26 08:13 | 26.12728 | -86.89568 | 37945 ft | 387 kts | 279° |
| 2026-04-26 08:14 | 26.13239 | -86.95525 | 37925 ft | 387 kts | 280° |
| 2026-04-26 08:14 | 26.13745 | -87.01487 | 37927 ft | 387 kts | 279° |
| 2026-04-26 08:15 | 26.14245 | -87.07459 | 37932 ft | 388 kts | 279° |
| 2026-04-26 08:15 | 26.14740 | -87.13444 | 37939 ft | 388 kts | 279° |
| 2026-04-26 08:16 | 26.15244 | -87.19426 | 37943 ft | 388 kts | 279° |
| 2026-04-26 08:16 | 26.15743 | -87.25412 | 37944 ft | 388 kts | 279° |
| 2026-04-26 08:17 | 26.16232 | -87.31398 | 37947 ft | 388 kts | 279° |
| 2026-04-26 08:17 | 26.16720 | -87.37380 | 37934 ft | 388 kts | 279° |
| 2026-04-26 08:18 | 26.17209 | -87.43363 | 37934 ft | 388 kts | 279° |
| 2026-04-26 08:18 | 26.17691 | -87.49347 | 37935 ft | 388 kts | 279° |
| 2026-04-26 08:19 | 26.18183 | -87.55370 | 37932 ft | 388 kts | 279° |
| 2026-04-26 08:19 | 26.18672 | -87.61353 | 37933 ft | 388 kts | 279° |
| 2026-04-26 08:20 | 26.19150 | -87.67340 | 37937 ft | 388 kts | 279° |
| 2026-04-26 08:20 | 26.19622 | -87.73329 | 37916 ft | 388 kts | 279° |
| 2026-04-26 08:21 | 26.20092 | -87.79319 | 37924 ft | 388 kts | 279° |
| 2026-04-26 08:21 | 26.20564 | -87.85313 | 37927 ft | 389 kts | 279° |
| 2026-04-26 08:22 | 26.21033 | -87.91311 | 37927 ft | 389 kts | 279° |
| 2026-04-26 08:22 | 26.21501 | -87.97304 | 37939 ft | 389 kts | 279° |
| 2026-04-26 08:23 | 26.21966 | -88.03301 | 37928 ft | 389 kts | 279° |
| 2026-04-26 08:23 | 26.22432 | -88.09303 | 37913 ft | 389 kts | 279° |
| 2026-04-26 08:24 | 26.22894 | -88.15312 | 37915 ft | 389 kts | 279° |
| 2026-04-26 08:24 | 26.23351 | -88.21322 | 37920 ft | 390 kts | 279° |
| 2026-04-26 08:25 | 26.23805 | -88.27337 | 37931 ft | 390 kts | 279° |
| 2026-04-26 08:25 | 26.24266 | -88.33358 | 37932 ft | 390 kts | 279° |
| 2026-04-26 08:26 | 26.24648 | -88.38402 | 37933 ft | 390 kts | 279° |
| 2026-04-26 08:26 | 26.25090 | -88.44432 | 37967 ft | 391 kts | 279° |
| 2026-04-26 08:27 | 26.25531 | -88.50462 | 37949 ft | 390 kts | 279° |
| 2026-04-26 08:27 | 26.25976 | -88.56490 | 37947 ft | 390 kts | 279° |
| 2026-04-26 08:28 | 26.26417 | -88.62505 | 37944 ft | 390 kts | 279° |
| 2026-04-26 08:28 | 26.26853 | -88.68516 | 37940 ft | 389 kts | 279° |
| 2026-04-26 08:29 | 26.27295 | -88.74524 | 37935 ft | 389 kts | 279° |
| 2026-04-26 08:29 | 26.27728 | -88.80533 | 37932 ft | 389 kts | 279° |
| 2026-04-26 08:30 | 26.28164 | -88.86533 | 37913 ft | 389 kts | 279° |
| 2026-04-26 08:30 | 26.28593 | -88.92537 | 37917 ft | 388 kts | 279° |
| 2026-04-26 08:31 | 26.29016 | -88.98537 | 37922 ft | 388 kts | 279° |
| 2026-04-26 08:31 | 26.29439 | -89.04539 | 37917 ft | 388 kts | 279° |
| 2026-04-26 08:32 | 26.29860 | -89.10578 | 37920 ft | 388 kts | 279° |
| 2026-04-26 08:32 | 26.30275 | -89.16579 | 37917 ft | 388 kts | 279° |
| 2026-04-26 08:33 | 26.30691 | -89.22579 | 37916 ft | 388 kts | 279° |
| 2026-04-26 08:33 | 26.31104 | -89.28577 | 37906 ft | 388 kts | 279° |
| 2026-04-26 08:34 | 26.31512 | -89.34575 | 37904 ft | 388 kts | 279° |
| 2026-04-26 08:34 | 26.31913 | -89.40573 | 37900 ft | 388 kts | 279° |
| 2026-04-26 08:35 | 26.32320 | -89.46568 | 37900 ft | 388 kts | 279° |
| 2026-04-26 08:35 | 26.32724 | -89.52560 | 37899 ft | 388 kts | 279° |
| 2026-04-26 08:36 | 26.33119 | -89.58562 | 37902 ft | 388 kts | 279° |
| 2026-04-26 08:36 | 26.33512 | -89.64559 | 37894 ft | 388 kts | 279° |
| 2026-04-26 08:37 | 26.33917 | -89.70559 | 37893 ft | 388 kts | 279° |
| 2026-04-26 08:37 | 26.34311 | -89.76558 | 37895 ft | 388 kts | 278° |
| 2026-04-26 08:38 | 26.34694 | -89.82566 | 37894 ft | 388 kts | 278° |
| 2026-04-26 08:38 | 26.35079 | -89.88570 | 37895 ft | 389 kts | 278° |
| 2026-04-26 08:39 | 26.35466 | -89.94584 | 37900 ft | 389 kts | 278° |
| 2026-04-26 08:39 | 26.35849 | -90.00599 | 37893 ft | 389 kts | 278° |
| 2026-04-26 08:40 | 26.36237 | -90.06654 | 37900 ft | 389 kts | 278° |
| 2026-04-26 08:40 | 26.36610 | -90.12669 | 37903 ft | 389 kts | 278° |
| 2026-04-26 08:41 | 26.36982 | -90.18689 | 37904 ft | 389 kts | 278° |
| 2026-04-26 08:41 | 26.37351 | -90.24708 | 37905 ft | 389 kts | 278° |
| 2026-04-26 08:42 | 26.37723 | -90.30733 | 37903 ft | 389 kts | 278° |
| 2026-04-26 08:42 | 26.38093 | -90.36754 | 37904 ft | 389 kts | 278° |
| 2026-04-26 08:43 | 26.38458 | -90.42778 | 37882 ft | 390 kts | 278° |
| 2026-04-26 08:43 | 26.38817 | -90.48810 | 37890 ft | 390 kts | 278° |
| 2026-04-26 08:44 | 26.39178 | -90.54844 | 37900 ft | 390 kts | 278° |
| 2026-04-26 08:44 | 26.39540 | -90.60880 | 37903 ft | 390 kts | 278° |
| 2026-04-26 08:45 | 26.39897 | -90.66923 | 37897 ft | 390 kts | 278° |
| 2026-04-26 08:45 | 26.40251 | -90.72966 | 37899 ft | 390 kts | 278° |
| 2026-04-26 08:46 | 26.40596 | -90.79010 | 37892 ft | 391 kts | 278° |
| 2026-04-26 08:46 | 26.40939 | -90.85054 | 37896 ft | 391 kts | 278° |
| 2026-04-26 08:47 | 26.41285 | -90.91102 | 37899 ft | 391 kts | 278° |
| 2026-04-26 08:47 | 26.41637 | -90.97154 | 37898 ft | 391 kts | 278° |
| 2026-04-26 08:48 | 26.41986 | -91.03251 | 37897 ft | 391 kts | 278° |
| 2026-04-26 08:48 | 26.42315 | -91.09304 | 37895 ft | 391 kts | 278° |
| 2026-04-26 08:49 | 26.42642 | -91.15363 | 37882 ft | 391 kts | 278° |
| 2026-04-26 08:49 | 26.42982 | -91.21423 | 37886 ft | 391 kts | 278° |
| 2026-04-26 08:50 | 26.43319 | -91.27487 | 37891 ft | 392 kts | 278° |
| 2026-04-26 08:50 | 26.43644 | -91.33559 | 37897 ft | 392 kts | 278° |
| 2026-04-26 08:51 | 26.44130 | -91.42666 | 37891 ft | 392 kts | 278° |
| 2026-04-26 08:52 | 26.44455 | -91.48744 | 37892 ft | 392 kts | 278° |
| 2026-04-26 08:52 | 26.44779 | -91.54821 | 37881 ft | 392 kts | 278° |
| 2026-04-26 08:53 | 26.45100 | -91.60902 | 37880 ft | 393 kts | 278° |
| 2026-04-26 08:53 | 26.45413 | -91.66993 | 37883 ft | 393 kts | 277° |
| 2026-04-26 08:54 | 26.45721 | -91.73084 | 37884 ft | 393 kts | 278° |
| 2026-04-26 08:54 | 26.46028 | -91.79179 | 37884 ft | 393 kts | 277° |
| 2026-04-26 08:55 | 26.46339 | -91.85271 | 37879 ft | 393 kts | 278° |
| 2026-04-26 08:55 | 26.46654 | -91.91366 | 37877 ft | 393 kts | 277° |
| 2026-04-26 08:56 | 26.46958 | -91.97458 | 37871 ft | 394 kts | 277° |
| 2026-04-26 08:56 | 26.47252 | -92.03563 | 37873 ft | 394 kts | 277° |
| 2026-04-26 08:57 | 26.47555 | -92.09707 | 37879 ft | 394 kts | 277° |
| 2026-04-26 08:57 | 26.47851 | -92.15809 | 37876 ft | 394 kts | 277° |
| 2026-04-26 08:58 | 26.48141 | -92.21920 | 37873 ft | 394 kts | 277° |
| 2026-04-26 08:58 | 26.48422 | -92.28030 | 37874 ft | 394 kts | 277° |
| 2026-04-26 08:59 | 26.48708 | -92.34135 | 37863 ft | 394 kts | 277° |
| 2026-04-26 08:59 | 26.48995 | -92.40242 | 37865 ft | 394 kts | 277° |
| 2026-04-26 09:00 | 26.49233 | -92.45321 | 37866 ft | 394 kts | 277° |
| 2026-04-26 09:00 | 26.49517 | -92.51435 | 37868 ft | 394 kts | 277° |
| 2026-04-26 09:01 | 26.49793 | -92.57541 | 37871 ft | 394 kts | 277° |
| 2026-04-26 09:01 | 26.50068 | -92.63695 | 37864 ft | 394 kts | 277° |
| 2026-04-26 09:02 | 26.50342 | -92.69803 | 37850 ft | 394 kts | 277° |
| 2026-04-26 09:02 | 26.50612 | -92.75911 | 37853 ft | 394 kts | 277° |
| 2026-04-26 09:03 | 26.50878 | -92.82020 | 37854 ft | 394 kts | 277° |
| 2026-04-26 09:03 | 26.51145 | -92.88125 | 37855 ft | 394 kts | 276° |
| 2026-04-26 09:04 | 26.51403 | -92.94232 | 37854 ft | 394 kts | 276° |
| 2026-04-26 09:04 | 26.51663 | -93.00351 | 37854 ft | 394 kts | 276° |
| 2026-04-26 09:05 | 26.51924 | -93.06465 | 37843 ft | 394 kts | 276° |
| 2026-04-26 09:05 | 26.52182 | -93.12578 | 37842 ft | 394 kts | 276° |
| 2026-04-26 09:06 | 26.52440 | -93.18697 | 37840 ft | 395 kts | 276° |
| 2026-04-26 09:06 | 26.52691 | -93.24817 | 37838 ft | 395 kts | 276° |
| 2026-04-26 09:07 | 26.52932 | -93.30939 | 37861 ft | 394 kts | 276° |
| 2026-04-26 09:07 | 26.53177 | -93.37058 | 37857 ft | 394 kts | 276° |
| 2026-04-26 09:08 | 26.53416 | -93.43161 | 37859 ft | 393 kts | 276° |
| 2026-04-26 09:08 | 26.53655 | -93.49267 | 37856 ft | 393 kts | 276° |
| 2026-04-26 09:09 | 26.53887 | -93.55370 | 37847 ft | 393 kts | 276° |
| 2026-04-26 09:09 | 26.54119 | -93.61506 | 37846 ft | 393 kts | 276° |
| 2026-04-26 09:10 | 26.54355 | -93.67601 | 37848 ft | 393 kts | 276° |
| 2026-04-26 09:10 | 26.54582 | -93.73692 | 37848 ft | 393 kts | 276° |
| 2026-04-26 09:11 | 26.54497 | -93.79806 | 37838 ft | 396 kts | 269° |
| 2026-04-26 09:11 | 26.53993 | -93.85933 | 37825 ft | 396 kts | 269° |
| 2026-04-26 09:12 | 26.53483 | -93.92065 | 37826 ft | 397 kts | 269° |
| 2026-04-26 09:12 | 26.52978 | -93.98199 | 37828 ft | 397 kts | 269° |
| 2026-04-26 09:13 | 26.52468 | -94.04337 | 37833 ft | 397 kts | 269° |
| 2026-04-26 09:13 | 26.51955 | -94.10477 | 37834 ft | 397 kts | 269° |
| 2026-04-26 09:14 | 26.51435 | -94.16614 | 37830 ft | 397 kts | 269° |
| 2026-04-26 09:14 | 26.50912 | -94.22756 | 37817 ft | 397 kts | 269° |
| 2026-04-26 09:15 | 26.50392 | -94.28900 | 37816 ft | 398 kts | 269° |
| 2026-04-26 09:15 | 26.49871 | -94.35041 | 37798 ft | 398 kts | 269° |
| 2026-04-26 09:16 | 26.49347 | -94.41196 | 37805 ft | 399 kts | 269° |
| 2026-04-26 09:16 | 26.48812 | -94.47363 | 37804 ft | 400 kts | 268° |
| 2026-04-26 09:17 | 26.48274 | -94.53584 | 37809 ft | 400 kts | 269° |
| 2026-04-26 09:17 | 26.47741 | -94.59771 | 37798 ft | 400 kts | 268° |
| 2026-04-26 09:18 | 26.47193 | -94.65957 | 37802 ft | 401 kts | 268° |
| 2026-04-26 09:18 | 26.46646 | -94.72155 | 37805 ft | 402 kts | 268° |
| 2026-04-26 09:19 | 26.46099 | -94.78368 | 37802 ft | 402 kts | 268° |
| 2026-04-26 09:19 | 26.45554 | -94.84576 | 37806 ft | 402 kts | 268° |
| 2026-04-26 09:20 | 26.44998 | -94.90786 | 37803 ft | 402 kts | 268° |
| 2026-04-26 09:20 | 26.44442 | -94.96996 | 37798 ft | 402 kts | 268° |
| 2026-04-26 09:21 | 26.43891 | -95.03209 | 37804 ft | 403 kts | 268° |
| 2026-04-26 09:21 | 26.43320 | -95.09420 | 37806 ft | 403 kts | 268° |
| 2026-04-26 09:22 | 26.42745 | -95.15638 | 37804 ft | 403 kts | 268° |
| 2026-04-26 09:22 | 26.42175 | -95.21853 | 37808 ft | 403 kts | 268° |
| 2026-04-26 09:23 | 26.41606 | -95.28065 | 37804 ft | 403 kts | 268° |
| 2026-04-26 09:23 | 26.41029 | -95.34279 | 37791 ft | 403 kts | 268° |
| 2026-04-26 09:24 | 26.40450 | -95.40493 | 37791 ft | 403 kts | 268° |
| 2026-04-26 09:24 | 26.39872 | -95.46705 | 37796 ft | 403 kts | 268° |
| 2026-04-26 09:25 | 26.39287 | -95.52919 | 37791 ft | 403 kts | 268° |
| 2026-04-26 09:25 | 26.38709 | -95.59129 | 37793 ft | 403 kts | 268° |
| 2026-04-26 09:26 | 26.38116 | -95.65377 | 37793 ft | 403 kts | 267° |
| 2026-04-26 09:26 | 26.37523 | -95.71589 | 37793 ft | 403 kts | 267° |
| 2026-04-26 09:27 | 26.36932 | -95.77794 | 37791 ft | 402 kts | 267° |
| 2026-04-26 09:27 | 26.36334 | -95.84000 | 37794 ft | 402 kts | 267° |
| 2026-04-26 09:28 | 26.35734 | -95.90197 | 37792 ft | 402 kts | 267° |
| 2026-04-26 09:28 | 26.35137 | -95.96390 | 37787 ft | 402 kts | 267° |
| 2026-04-26 09:29 | 26.34539 | -96.02584 | 37786 ft | 402 kts | 267° |
| 2026-04-26 09:29 | 26.33924 | -96.08773 | 37787 ft | 402 kts | 267° |
| 2026-04-26 09:30 | 26.33312 | -96.14963 | 37774 ft | 402 kts | 267° |
| 2026-04-26 09:30 | 26.32703 | -96.21149 | 37776 ft | 401 kts | 267° |
| 2026-04-26 09:31 | 26.32092 | -96.27332 | 37776 ft | 401 kts | 267° |
| 2026-04-26 09:31 | 26.31475 | -96.33517 | 37778 ft | 401 kts | 267° |
| 2026-04-26 09:32 | 26.30857 | -96.39703 | 37776 ft | 401 kts | 267° |
| 2026-04-26 09:32 | 26.30234 | -96.45889 | 37778 ft | 402 kts | 267° |
| 2026-04-26 09:33 | 26.29710 | -96.51070 | 37770 ft | 402 kts | 267° |
| 2026-04-26 09:33 | 26.29087 | -96.57252 | 37768 ft | 402 kts | 267° |
| 2026-04-26 09:34 | 26.28463 | -96.63435 | 37773 ft | 402 kts | 267° |
| 2026-04-26 09:34 | 26.27836 | -96.69619 | 37772 ft | 402 kts | 267° |
| 2026-04-26 09:35 | 26.27197 | -96.75806 | 37772 ft | 402 kts | 267° |
| 2026-04-26 09:35 | 26.26554 | -96.81987 | 37773 ft | 402 kts | 267° |
| 2026-04-26 09:36 | 26.25920 | -96.88165 | 37764 ft | 402 kts | 267° |
| 2026-04-26 09:36 | 26.25281 | -96.94343 | 37772 ft | 401 kts | 266° |
| 2026-04-26 09:37 | 26.24637 | -97.00519 | 37783 ft | 401 kts | 266° |
| 2026-04-26 09:37 | 26.23995 | -97.06691 | 37786 ft | 401 kts | 266° |
| 2026-04-26 09:38 | 26.23336 | -97.12902 | 37787 ft | 401 kts | 266° |
| 2026-04-26 09:38 | 26.22678 | -97.19067 | 37789 ft | 401 kts | 266° |
| 2026-04-26 09:39 | 26.22028 | -97.25229 | 37788 ft | 401 kts | 267° |
| 2026-04-26 09:39 | 26.21389 | -97.31393 | 37787 ft | 401 kts | 266° |
| 2026-04-26 09:40 | 26.20736 | -97.37559 | 37785 ft | 401 kts | 266° |
| 2026-04-26 09:40 | 26.20063 | -97.43721 | 37787 ft | 401 kts | 266° |
| 2026-04-26 09:41 | 26.19393 | -97.49882 | 37789 ft | 401 kts | 266° |
| 2026-04-26 09:41 | 26.18727 | -97.56041 | 37777 ft | 401 kts | 266° |
| 2026-04-26 09:42 | 26.18059 | -97.62201 | 37765 ft | 401 kts | 266° |
| 2026-04-26 09:42 | 26.17389 | -97.68369 | 37769 ft | 401 kts | 266° |
| 2026-04-26 09:43 | 26.16713 | -97.74538 | 37772 ft | 401 kts | 266° |
| 2026-04-26 09:43 | 26.16031 | -97.80698 | 37778 ft | 401 kts | 266° |
| 2026-04-26 09:44 | 26.15350 | -97.86866 | 37795 ft | 401 kts | 266° |
| 2026-04-26 09:44 | 26.14670 | -97.93026 | 37797 ft | 401 kts | 266° |
| 2026-04-26 09:45 | 26.13987 | -97.99193 | 37790 ft | 401 kts | 266° |
| 2026-04-26 09:45 | 26.13294 | -98.05398 | 37794 ft | 401 kts | 266° |
| 2026-04-26 09:46 | 26.12601 | -98.11549 | 37786 ft | 401 kts | 266° |
| 2026-04-26 09:46 | 26.11907 | -98.17694 | 37795 ft | 400 kts | 266° |
| 2026-04-26 09:47 | 26.11213 | -98.23842 | 37796 ft | 400 kts | 266° |
| 2026-04-26 09:47 | 26.10515 | -98.29983 | 37790 ft | 400 kts | 266° |
| 2026-04-26 09:48 | 26.09815 | -98.36129 | 37724 ft | 401 kts | 266° |
| 2026-04-26 09:48 | 26.09464 | -98.39200 | 37451 ft | 398 kts | 266° |
| 2026-04-26 09:48 | 26.09113 | -98.42256 | 37185 ft | 398 kts | 266° |
| 2026-04-26 09:48 | 26.08762 | -98.45304 | 36586 ft | 397 kts | 266° |
| 2026-04-26 09:49 | 26.08411 | -98.48367 | 35798 ft | 400 kts | 266° |
| 2026-04-26 09:49 | 26.08060 | -98.51444 | 34976 ft | 404 kts | 266° |
| 2026-04-26 09:49 | 26.07703 | -98.54557 | 34137 ft | 407 kts | 265° |
| 2026-04-26 09:49 | 26.07343 | -98.57693 | 33151 ft | 412 kts | 265° |
| 2026-04-26 09:50 | 26.06976 | -98.60879 | 32095 ft | 417 kts | 265° |
| 2026-04-26 09:50 | 26.06604 | -98.64089 | 31223 ft | 418 kts | 265° |
| 2026-04-26 09:50 | 26.06230 | -98.67302 | 30266 ft | 421 kts | 265° |
| 2026-04-26 09:50 | 26.05853 | -98.70518 | 29588 ft | 416 kts | 265° |
| 2026-04-26 09:51 | 26.05479 | -98.73686 | 28919 ft | 410 kts | 265° |
| 2026-04-26 09:51 | 26.05112 | -98.76802 | 28296 ft | 403 kts | 265° |
| 2026-04-26 09:51 | 26.04751 | -98.79874 | 27681 ft | 398 kts | 265° |
| 2026-04-26 09:51 | 26.04393 | -98.82898 | 27082 ft | 392 kts | 265° |
| 2026-04-26 09:52 | 26.04039 | -98.85890 | 26492 ft | 388 kts | 265° |
| 2026-04-26 09:52 | 26.03347 | -98.91777 | 25329 ft | 381 kts | 265° |
| 2026-04-26 09:52 | 26.03016 | -98.94607 | 24771 ft | 378 kts | 265° |
| 2026-04-26 09:53 | 26.02677 | -98.97495 | 24218 ft | 376 kts | 265° |
| 2026-04-26 09:53 | 26.02336 | -99.00378 | 23664 ft | 375 kts | 265° |
| 2026-04-26 09:53 | 26.01997 | -99.03244 | 23110 ft | 374 kts | 265° |
| 2026-04-26 09:53 | 26.01657 | -99.06100 | 22565 ft | 371 kts | 265° |
| 2026-04-26 09:54 | 26.01314 | -99.08967 | 22084 ft | 367 kts | 264° |
| 2026-04-26 09:54 | 26.00977 | -99.11769 | 21601 ft | 364 kts | 264° |
| 2026-04-26 09:54 | 26.00644 | -99.14542 | 21144 ft | 360 kts | 264° |
| 2026-04-26 09:54 | 26.00316 | -99.17282 | 20689 ft | 357 kts | 264° |
| 2026-04-26 09:55 | 25.99989 | -99.20009 | 20168 ft | 355 kts | 264° |
| 2026-04-26 09:55 | 25.99439 | -99.22679 | 19664 ft | 355 kts | 254° |
| 2026-04-26 09:55 | 25.98641 | -99.25278 | 19170 ft | 354 kts | 253° |
| 2026-04-26 09:55 | 25.97861 | -99.27819 | 19043 ft | 341 kts | 253° |
| 2026-04-26 09:56 | 25.97109 | -99.30262 | 18916 ft | 329 kts | 253° |
| 2026-04-26 09:56 | 25.96379 | -99.32642 | 18647 ft | 323 kts | 253° |
| 2026-04-26 09:56 | 25.95661 | -99.34987 | 18306 ft | 320 kts | 253° |
| 2026-04-26 09:56 | 25.94945 | -99.37322 | 17909 ft | 319 kts | 253° |
| 2026-04-26 09:57 | 25.94229 | -99.39650 | 17491 ft | 318 kts | 253° |
| 2026-04-26 09:57 | 25.93518 | -99.41965 | 17113 ft | 316 kts | 253° |
| 2026-04-26 09:57 | 25.92811 | -99.44267 | 16745 ft | 314 kts | 253° |
| 2026-04-26 09:57 | 25.92109 | -99.46553 | 16413 ft | 311 kts | 253° |
| 2026-04-26 09:58 | 25.91416 | -99.48802 | 16169 ft | 306 kts | 253° |
| 2026-04-26 09:58 | 25.90730 | -99.51026 | 15864 ft | 303 kts | 253° |
| 2026-04-26 09:58 | 25.90048 | -99.53237 | 15553 ft | 302 kts | 253° |
| 2026-04-26 09:58 | 25.89368 | -99.55438 | 15250 ft | 300 kts | 253° |
| 2026-04-26 09:59 | 25.88693 | -99.57618 | 14944 ft | 298 kts | 253° |
| 2026-04-26 09:59 | 25.88239 | -99.59088 | 14739 ft | 297 kts | 253° |
| 2026-04-26 09:59 | 25.87362 | -99.61931 | 14521 ft | 289 kts | 253° |
| 2026-04-26 09:59 | 25.86689 | -99.63998 | 14398 ft | 280 kts | 248° |
| 2026-04-26 10:00 | 25.85697 | -99.65828 | 14173 ft | 277 kts | 235° |
| 2026-04-26 10:00 | 25.84321 | -99.67331 | 13865 ft | 279 kts | 221° |
| 2026-04-26 10:00 | 25.82686 | -99.68504 | 13479 ft | 279 kts | 216° |
| 2026-04-26 10:00 | 25.81040 | -99.69642 | 13001 ft | 278 kts | 217° |
| 2026-04-26 10:01 | 25.79402 | -99.70779 | 12516 ft | 277 kts | 216° |
| 2026-04-26 10:01 | 25.77771 | -99.71916 | 12030 ft | 277 kts | 216° |
| 2026-04-26 10:01 | 25.76135 | -99.73042 | 11554 ft | 277 kts | 216° |
| 2026-04-26 10:01 | 25.74492 | -99.74149 | 11118 ft | 275 kts | 215° |
| 2026-04-26 10:02 | 25.72897 | -99.75212 | 10984 ft | 261 kts | 215° |
| 2026-04-26 10:02 | 25.71342 | -99.76247 | 10573 ft | 261 kts | 215° |
| 2026-04-26 10:02 | 25.69770 | -99.77301 | 10125 ft | 261 kts | 215° |
| 2026-04-26 10:02 | 25.68210 | -99.78349 | 9601 ft | 264 kts | 215° |
| 2026-04-26 10:03 | 25.66624 | -99.79416 | 8945 ft | 270 kts | 214° |
| 2026-04-26 10:03 | 25.65000 | -99.80510 | 8261 ft | 276 kts | 214° |
| 2026-04-26 10:03 | 25.63612 | -99.81939 | 7586 ft | 274 kts | 241° |
| 2026-04-26 10:03 | 25.63157 | -99.83962 | 6891 ft | 276 kts | 274° |
| 2026-04-26 10:04 | 25.63821 | -99.85946 | 6206 ft | 281 kts | 306° |
| 2026-04-26 10:04 | 25.65100 | -99.87599 | 5539 ft | 282 kts | 306° |
| 2026-04-26 10:04 | 25.66156 | -99.89383 | 5144 ft | 271 kts | 299° |
| 2026-04-26 10:04 | 25.67095 | -99.91150 | 4811 ft | 261 kts | 299° |
| 2026-04-26 10:05 | 25.68013 | -99.92834 | 4495 ft | 250 kts | 300° |
| 2026-04-26 10:05 | 25.68904 | -99.94448 | 4176 ft | 241 kts | 300° |
| 2026-04-26 10:05 | 25.69763 | -99.96003 | 3880 ft | 233 kts | 300° |
| 2026-04-26 10:05 | 25.70596 | -99.97513 | 3588 ft | 224 kts | 300° |
| 2026-04-26 10:06 | 25.71379 | -99.98933 | 3324 ft | 209 kts | 300° |
| 2026-04-26 10:06 | 25.72106 | -100.00252 | 3073 ft | 193 kts | 300° |
| 2026-04-26 10:06 | 25.72560 | -100.01075 | 2913 ft | 184 kts | 300° |
| 2026-04-26 10:06 | 25.73406 | -100.02610 | 2626 ft | 162 kts | 301° |
| 2026-04-26 10:07 | 25.73791 | -100.03309 | 2485 ft | 153 kts | 301° |
| 2026-04-26 10:07 | 25.74324 | -100.04277 | 2305 ft | 146 kts | 301° |
| 2026-04-26 10:07 | 25.74856 | -100.05245 | 2109 ft | 144 kts | 301° |
| 2026-04-26 10:07 | 25.75373 | -100.06187 | 1935 ft | 142 kts | 302° |
| 2026-04-26 10:08 | 25.75889 | -100.07125 | 1744 ft | 142 kts | 302° |
| 2026-04-26 10:08 | 25.76417 | -100.08046 | 1546 ft | 141 kts | 302° |
| 2026-04-26 10:08 | 25.76914 | -100.08985 | 1397 ft | 140 kts | 302° |
| 2026-04-26 10:08 | 25.77412 | -100.09891 | 1339 ft | 128 kts | 303° |
| 2026-04-26 10:09 | 25.77786 | -100.10563 | 1331 ft | 63 kts | 301° |
| 2026-04-26 10:09 | 25.77858 | -100.10741 | 1331 ft | 16 kts | 279° |
| 2026-04-26 10:09 | 25.77858 | -100.10813 | 1331 ft | 9 kts | 269° |
| 2026-04-26 10:09 | 25.77857 | -100.10907 | 1331 ft | 13 kts | 272° |
| 2026-04-26 10:10 | 25.77862 | -100.11002 | 1331 ft | 15 kts | 273° |
| 2026-04-26 10:10 | 25.77869 | -100.11135 | 1331 ft | 14 kts | 278° |
| 2026-04-26 10:10 | 25.77901 | -100.11202 | 1331 ft | 6 kts | 307° |
| 2026-04-26 10:10 | 25.77912 | -100.11215 | 1331 ft | 2 kts | 321° |
| 2026-04-26 10:11 | 25.77923 | -100.11226 | 1331 ft | 3 kts | 309° |
| 2026-04-26 10:11 | 25.77903 | -100.11251 | 1331 ft | 8 kts | 217° |
| 2026-04-26 10:11 | 25.77885 | -100.11264 | 1331 ft | 3 kts | 207° |
| 2026-04-26 10:11 | 25.77865 | -100.11275 | 1331 ft | 4 kts | 207° |
| 2026-04-26 10:12 | 25.77853 | -100.11283 | 1331 ft | 1 kts | 215° |
| 2026-04-26 10:12 | 25.77847 | -100.11288 | 1331 ft | 0 kts | 212° |
| 2026-04-26 10:14 | 25.77846 | -100.11288 | 1331 ft | 0 kts | 212° |